createdAt,value
2022-09-01T00:00:09.641Z,59.67
2022-09-01T00:02:59.122Z,59.60
2022-09-01T00:05:28.269Z,59.66
2022-09-01T00:07:57.392Z,59.65
2022-09-01T00:10:26.687Z,59.66
2022-09-01T00:12:57.079Z,59.78
2022-09-01T00:15:30.584Z,59.74
2022-09-01T00:17:59.603Z,59.97
2022-09-01T00:20:29.026Z,59.88
2022-09-01T00:22:58.215Z,59.95
2022-09-01T00:25:27.970Z,60.10
2022-09-01T00:28:00.296Z,60.17
2022-09-01T00:30:30.721Z,60.26
2022-09-01T00:32:59.990Z,60.29
2022-09-01T00:35:29.523Z,60.25
2022-09-01T00:37:58.473Z,60.25
2022-09-01T00:40:31.397Z,60.30
2022-09-01T00:43:01.216Z,60.31
2022-09-01T00:45:32.369Z,60.47
2022-09-01T00:48:01.488Z,60.46
2022-09-01T00:50:30.770Z,60.51
2022-09-01T00:53:00.879Z,60.42
2022-09-01T00:55:32.825Z,60.51
2022-09-01T00:58:03.665Z,60.59
2022-09-01T01:00:41.935Z,61.38
2022-09-01T01:03:12.850Z,61.21
2022-09-01T01:05:54.383Z,62.24
2022-09-01T01:08:31.674Z,61.98
2022-09-01T01:11:01.248Z,62.23
2022-09-01T01:13:32.132Z,62.47
2022-09-01T01:16:03.358Z,62.81
2022-09-01T01:18:33.028Z,62.89
2022-09-01T01:21:24.687Z,63.25
2022-09-01T01:24:03.544Z,62.80
2022-09-01T01:26:34.610Z,63.17
2022-09-01T01:29:04.940Z,63.22
2022-09-01T01:31:35.481Z,63.21
2022-09-01T01:34:09.822Z,63.08
2022-09-01T01:36:41.725Z,63.35
2022-09-01T01:39:19.318Z,63.43
2022-09-01T01:41:50.811Z,63.31
2022-09-01T01:44:27.954Z,62.98
2022-09-01T01:46:59.950Z,62.98
2022-09-01T01:49:31.317Z,62.92
2022-09-01T01:52:01.241Z,63.16
2022-09-01T01:54:33.834Z,62.93
2022-09-01T01:57:05.372Z,62.55
2022-09-01T01:59:34.708Z,62.91
2022-09-01T02:02:09.860Z,62.94
2022-09-01T02:04:40.430Z,62.96
2022-09-01T02:07:14.091Z,62.96
2022-09-01T02:09:48.182Z,63.00
2022-09-01T02:12:19.740Z,62.88
2022-09-01T02:14:50.211Z,62.90
2022-09-01T02:17:21.294Z,63.01
2022-09-01T02:19:50.720Z,63.00
2022-09-01T02:22:21.743Z,63.05
2022-09-01T02:24:52.804Z,63.08
2022-09-01T02:27:26.014Z,62.90
2022-09-01T02:29:58.800Z,63.02
2022-09-01T02:32:28.646Z,63.22
2022-09-01T02:35:01.416Z,63.00
2022-09-01T02:37:30.817Z,62.94
2022-09-01T02:39:59.915Z,63.06
2022-09-01T02:42:30.337Z,62.99
2022-09-01T02:44:59.840Z,62.98
2022-09-01T02:47:33.566Z,62.94
2022-09-01T02:50:03.635Z,62.71
2022-09-01T02:52:38.265Z,63.19
2022-09-01T02:55:09.118Z,63.29
2022-09-01T02:57:39.867Z,63.33
2022-09-01T03:00:20.924Z,63.28
2022-09-01T03:02:52.966Z,63.26
2022-09-01T03:05:25.446Z,63.35
2022-09-01T03:07:58.034Z,63.38
2022-09-01T03:11:23.848Z,63.22
2022-09-01T03:13:54.885Z,63.24
2022-09-01T03:16:24.704Z,63.44
2022-09-01T03:18:54.161Z,63.31
2022-09-01T03:21:23.541Z,63.54
2022-09-01T03:23:54.317Z,63.45
2022-09-01T03:26:24.336Z,63.35
2022-09-01T03:28:55.059Z,63.61
2022-09-01T03:31:27.582Z,63.65
2022-09-01T03:34:03.425Z,63.68
2022-09-01T03:36:36.154Z,63.74
2022-09-01T03:39:05.768Z,63.73
2022-09-01T03:41:37.512Z,64.09
2022-09-01T03:44:12.135Z,64.09
2022-09-01T03:46:42.616Z,64.16
2022-09-01T03:49:15.203Z,64.03
2022-09-01T03:51:45.116Z,64.10
2022-09-01T03:54:14.835Z,63.95
2022-09-01T03:56:43.936Z,64.17
2022-09-01T03:59:19.792Z,64.34
2022-09-01T04:01:50.367Z,64.28
2022-09-01T04:04:19.593Z,64.29
2022-09-01T04:06:49.206Z,64.24
2022-09-01T04:09:18.299Z,64.40
2022-09-01T04:11:48.522Z,64.34
2022-09-01T04:14:19.826Z,64.38
2022-09-01T04:17:08.428Z,64.47
2022-09-01T04:19:39.663Z,64.53
2022-09-01T04:22:17.767Z,64.62
2022-09-01T04:24:47.227Z,64.39
2022-09-01T04:27:21.681Z,64.79
2022-09-01T04:29:55.811Z,64.48
2022-09-01T04:32:28.900Z,64.73
2022-09-01T04:35:01.653Z,64.69
2022-09-01T04:37:31.272Z,64.65
2022-09-01T04:40:04.591Z,64.56
2022-09-01T04:42:34.979Z,64.65
2022-09-01T04:45:11.268Z,64.64
2022-09-01T04:47:45.572Z,64.82
2022-09-01T04:50:19.709Z,64.76
2022-09-01T04:53:12.042Z,64.74
2022-09-01T04:55:46.196Z,65.05
2022-09-01T04:58:20.668Z,64.92
2022-09-01T05:00:53.143Z,64.91
2022-09-01T05:03:24.657Z,65.09
2022-09-01T05:06:03.994Z,65.14
2022-09-01T05:08:35.521Z,65.18
2022-09-01T05:11:17.898Z,65.19
2022-09-01T05:13:51.205Z,65.57
2022-09-01T05:16:25.354Z,65.37
2022-09-01T05:18:58.339Z,65.19
2022-09-01T05:21:34.438Z,65.38
2022-09-01T05:24:05.115Z,65.43
2022-09-01T05:26:35.215Z,65.86
2022-09-01T05:29:10.751Z,65.67
2022-09-01T05:31:43.403Z,65.42
2022-09-01T05:34:13.192Z,65.57
2022-09-01T05:36:48.312Z,65.43
2022-09-01T05:39:17.748Z,65.61
2022-09-01T05:41:48.208Z,65.45
2022-09-01T05:44:22.604Z,65.38
2022-09-01T05:46:55.888Z,65.44
2022-09-01T05:49:28.659Z,65.41
2022-09-01T05:51:59.025Z,65.22
2022-09-01T05:54:30.764Z,65.18
2022-09-01T05:57:17.417Z,65.36
2022-09-01T05:59:54.058Z,65.29
2022-09-01T06:02:28.750Z,65.25
2022-09-01T06:05:00.397Z,65.23
2022-09-01T06:07:35.855Z,65.41
2022-09-01T06:10:06.388Z,65.20
2022-09-01T06:12:36.620Z,65.05
2022-09-01T06:15:16.054Z,64.98
2022-09-01T06:17:50.061Z,65.00
2022-09-01T06:20:20.396Z,64.97
2022-09-01T06:22:49.859Z,64.88
2022-09-01T06:25:19.468Z,64.30
2022-09-01T06:27:52.495Z,64.68
2022-09-01T06:30:24.390Z,64.77
2022-09-01T06:33:02.369Z,64.54
2022-09-01T06:35:34.001Z,64.48
2022-09-01T06:38:04.887Z,64.43
2022-09-01T06:40:43.691Z,64.48
2022-09-01T06:43:17.474Z,64.52
2022-09-01T06:45:54.760Z,64.74
2022-09-01T06:48:30.930Z,64.31
2022-09-01T06:51:15.967Z,64.31
2022-09-01T06:53:51.221Z,64.27
2022-09-01T06:56:20.968Z,64.10
2022-09-01T06:58:53.426Z,64.28
2022-09-01T07:01:24.406Z,63.93
2022-09-01T07:03:57.141Z,64.18
2022-09-01T07:07:54.416Z,63.86
2022-09-01T07:10:21.028Z,63.77
2022-09-01T07:13:09.001Z,63.30
2022-09-01T07:18:35.023Z,63.08
2022-09-01T07:21:36.142Z,62.58
2022-09-01T07:24:11.165Z,62.72
2022-09-01T07:26:47.636Z,62.52
2022-09-01T07:29:22.786Z,62.27
2022-09-01T07:34:47.718Z,62.49
2022-09-01T07:43:34.121Z,61.86
2022-09-01T07:46:38.807Z,61.63
2022-09-01T07:52:03.895Z,62.19
2022-09-01T07:54:37.322Z,61.22
2022-09-01T07:57:06.622Z,60.77
2022-09-01T07:59:37.703Z,61.12
2022-09-01T08:02:17.705Z,61.36
2022-09-01T08:04:48.273Z,60.89
2022-09-01T08:07:18.030Z,61.13
2022-09-01T08:09:48.442Z,61.54
2022-09-01T08:12:18.803Z,61.22
2022-09-01T08:15:12.730Z,61.03
2022-09-01T08:17:51.690Z,60.64
2022-09-01T08:20:21.366Z,60.74
2022-09-01T08:23:15.158Z,60.79
2022-09-01T08:25:45.949Z,60.75
2022-09-01T08:28:26.284Z,60.48
2022-09-01T08:30:56.402Z,60.92
2022-09-01T08:33:27.830Z,60.66
2022-09-01T08:35:57.326Z,60.75
2022-09-01T08:38:28.139Z,60.80
2022-09-01T08:41:03.387Z,61.10
2022-09-01T08:43:49.114Z,60.77
2022-09-01T08:46:26.065Z,60.76
2022-09-01T08:52:15.351Z,60.56
2022-09-01T08:54:47.945Z,60.57
2022-09-01T08:57:23.081Z,60.32
2022-09-01T09:00:23.384Z,60.58
2022-09-01T09:03:07.750Z,60.63
2022-09-01T09:05:52.248Z,60.45
2022-09-01T09:08:35.163Z,60.67
2022-09-01T09:11:08.378Z,60.32
2022-09-01T09:13:53.617Z,60.14
2022-09-01T09:16:28.989Z,59.96
2022-09-01T09:19:04.315Z,59.66
2022-09-01T09:21:37.375Z,59.94
2022-09-01T09:24:20.672Z,59.94
2022-09-01T09:26:51.442Z,59.58
2022-09-01T09:29:22.060Z,59.57
2022-09-01T09:32:04.859Z,59.51
2022-09-01T09:34:36.908Z,59.22
2022-09-01T09:37:24.023Z,59.35
2022-09-01T09:40:15.936Z,59.32
2022-09-01T09:43:07.716Z,59.79
2022-09-01T09:45:42.330Z,59.74
2022-09-01T09:48:29.039Z,59.84
2022-09-01T09:51:16.644Z,59.98
2022-09-01T09:53:45.849Z,60.23
2022-09-01T09:56:20.844Z,60.20
2022-09-01T09:58:51.721Z,60.03
2022-09-01T10:01:32.558Z,59.71
2022-09-01T10:04:04.337Z,60.11
2022-09-01T10:06:37.358Z,60.09
2022-09-01T10:09:09.669Z,59.92
2022-09-01T10:11:42.298Z,59.99
2022-09-01T10:14:35.871Z,59.75
2022-09-01T10:17:13.369Z,59.75
2022-09-01T10:19:52.614Z,59.59
2022-09-01T10:22:23.153Z,59.39
2022-09-01T10:24:52.167Z,59.48
2022-09-01T10:27:23.158Z,59.54
2022-09-01T10:30:13.998Z,59.66
2022-09-01T10:32:54.885Z,59.78
2022-09-01T10:35:28.227Z,59.99
2022-09-01T10:38:01.007Z,59.93
2022-09-01T10:40:41.709Z,59.81
2022-09-01T10:43:38.043Z,60.05
2022-09-01T10:46:42.160Z,60.05
2022-09-01T10:49:50.520Z,60.03
2022-09-01T10:53:11.462Z,60.28
2022-09-01T10:56:02.005Z,60.17
2022-09-01T11:02:34.742Z,59.99
2022-09-01T11:05:19.230Z,59.67
2022-09-01T11:08:15.242Z,59.75
2022-09-01T11:10:53.485Z,59.58
2022-09-01T11:13:46.317Z,59.69
2022-09-01T11:16:52.388Z,59.59
2022-09-01T11:19:39.347Z,59.34
2022-09-01T11:22:22.896Z,59.55
2022-09-01T11:25:38.722Z,59.50
2022-09-01T11:28:47.358Z,59.69
2022-09-01T11:31:33.242Z,59.75
2022-09-01T11:34:13.325Z,59.64
2022-09-01T11:37:00.374Z,59.16
2022-09-01T11:39:44.165Z,59.42
2022-09-01T11:42:19.632Z,59.36
2022-09-01T11:44:54.083Z,59.04
2022-09-01T11:47:27.716Z,59.20
2022-09-01T11:49:59.868Z,59.02
2022-09-01T11:52:31.882Z,58.96
2022-09-01T11:55:01.618Z,58.42
2022-09-01T11:57:33.795Z,58.44
2022-09-01T12:00:05.909Z,58.21
2022-09-01T12:02:47.920Z,58.47
2022-09-01T12:05:33.325Z,58.55
2022-09-01T12:08:05.672Z,58.38
2022-09-01T12:10:38.722Z,58.06
2022-09-01T12:13:10.871Z,58.30
2022-09-01T12:16:00.617Z,58.36
2022-09-01T12:18:38.365Z,58.46
2022-09-01T12:21:09.603Z,58.50
2022-09-01T12:23:43.190Z,58.29
2022-09-01T12:26:15.799Z,58.36
2022-09-01T12:28:45.688Z,58.44
2022-09-01T12:31:17.279Z,58.38
2022-09-01T12:33:49.100Z,58.69
2022-09-01T12:36:25.552Z,58.64
2022-09-01T12:38:56.477Z,58.66
2022-09-01T12:41:35.139Z,58.85
2022-09-01T12:44:31.046Z,58.62
2022-09-01T12:47:02.572Z,58.33
2022-09-01T12:49:47.909Z,58.58
2022-09-01T12:52:26.073Z,58.65
2022-09-01T12:55:47.380Z,58.51
2022-09-01T12:58:06.190Z,58.57
2022-09-01T13:00:37.083Z,58.20
2022-09-01T13:03:14.533Z,58.40
2022-09-01T13:05:47.163Z,58.36
2022-09-01T13:08:19.029Z,58.15
2022-09-01T13:10:51.733Z,58.18
2022-09-01T13:13:24.120Z,57.82
2022-09-01T13:15:55.478Z,58.07
2022-09-01T13:18:26.516Z,57.84
2022-09-01T13:20:59.051Z,57.74
2022-09-01T13:23:28.466Z,57.17
2022-09-01T13:25:59.038Z,56.95
2022-09-01T13:28:28.490Z,56.96
2022-09-01T13:36:45.216Z,56.00
2022-09-01T13:39:16.960Z,57.17
2022-09-01T13:41:48.223Z,57.70
2022-09-01T13:44:18.554Z,59.00
2022-09-01T13:50:05.458Z,60.19
2022-09-01T13:52:27.708Z,58.70
2022-09-01T13:54:56.857Z,58.60
2022-09-01T13:57:27.020Z,59.17
2022-09-01T14:00:01.015Z,58.61
2022-09-01T14:02:29.960Z,58.87
2022-09-01T14:04:59.396Z,58.71
2022-09-01T14:07:30.493Z,58.11
2022-09-01T14:09:59.555Z,55.94
2022-09-01T14:12:30.269Z,57.41
2022-09-01T14:15:17.536Z,56.90
2022-09-01T14:17:48.559Z,56.99
2022-09-01T14:20:20.263Z,56.24
2022-09-01T14:22:52.126Z,55.20
2022-09-01T14:25:22.209Z,54.01
2022-09-01T14:27:53.325Z,53.19
2022-09-01T14:30:29.155Z,52.35
2022-09-01T14:33:01.489Z,52.47
2022-09-01T14:35:34.335Z,52.06
2022-09-01T14:38:07.668Z,51.89
2022-09-01T14:40:38.679Z,52.54
2022-09-01T14:43:10.497Z,53.36
2022-09-01T14:45:39.884Z,53.99
2022-09-01T14:48:09.491Z,54.09
2022-09-01T14:50:42.724Z,54.32
2022-09-01T14:53:13.826Z,54.14
2022-09-01T14:55:44.044Z,54.27
2022-09-01T14:58:13.580Z,54.19
2022-09-01T15:00:42.962Z,53.50
2022-09-01T15:03:12.334Z,52.96
2022-09-01T15:05:41.997Z,51.96
2022-09-01T15:08:17.634Z,51.43
2022-09-01T15:10:47.160Z,51.39
2022-09-01T15:13:16.320Z,50.94
2022-09-01T15:16:00.218Z,51.08
2022-09-01T15:18:29.923Z,51.24
2022-09-01T15:20:59.293Z,51.43
2022-09-01T15:23:29.801Z,51.46
2022-09-01T15:25:59.062Z,51.16
2022-09-01T15:28:28.176Z,50.93
2022-09-01T15:30:57.687Z,50.63
2022-09-01T15:33:26.929Z,50.20
2022-09-01T15:35:55.872Z,49.94
2022-09-01T15:38:30.333Z,50.39
2022-09-01T15:41:01.748Z,49.49
2022-09-01T15:43:31.922Z,49.24
2022-09-01T15:46:02.131Z,49.17
2022-09-01T15:48:31.377Z,48.59
2022-09-01T15:51:28.262Z,48.45
2022-09-01T15:54:00.280Z,48.92
2022-09-01T15:56:32.030Z,48.49
2022-09-01T15:59:03.554Z,48.86
2022-09-01T16:01:34.961Z,48.44
2022-09-01T16:04:05.712Z,48.35
2022-09-01T16:06:35.415Z,48.58
2022-09-01T16:09:04.922Z,48.04
2022-09-01T16:11:36.734Z,47.80
2022-09-01T16:14:06.578Z,47.52
2022-09-01T16:16:46.998Z,47.20
2022-09-01T16:19:39.088Z,46.39
2022-09-01T16:22:17.737Z,46.94
2022-09-01T16:24:49.373Z,46.77
2022-09-01T16:27:24.446Z,46.87
2022-09-01T16:29:57.008Z,46.80
2022-09-01T16:32:27.216Z,46.83
2022-09-01T16:34:56.283Z,46.62
2022-09-01T16:37:40.783Z,46.72
2022-09-01T16:40:31.112Z,46.54
2022-09-01T16:43:11.457Z,45.86
2022-09-01T16:45:50.824Z,46.20
2022-09-01T16:48:26.770Z,45.78
2022-09-01T16:51:03.167Z,46.05
2022-09-01T16:53:59.187Z,45.76
2022-09-01T16:56:33.992Z,45.83
2022-09-01T16:59:21.083Z,45.69
2022-09-01T17:02:01.613Z,45.97
2022-09-01T17:04:39.591Z,46.01
2022-09-01T17:07:15.501Z,46.09
2022-09-01T17:09:47.581Z,46.25
2022-09-01T17:12:27.673Z,46.17
2022-09-01T17:15:02.160Z,46.25
2022-09-01T17:17:41.366Z,46.25
2022-09-01T17:20:12.124Z,46.22
2022-09-01T17:22:52.252Z,46.39
2022-09-01T17:25:29.934Z,46.45
2022-09-01T17:28:07.047Z,46.48
2022-09-01T17:30:45.810Z,46.65
2022-09-01T17:33:24.379Z,46.71
2022-09-01T17:36:11.520Z,46.82
2022-09-01T17:38:54.227Z,46.79
2022-09-01T17:41:34.818Z,46.87
2022-09-01T17:44:19.243Z,46.96
2022-09-01T17:46:58.302Z,47.05
2022-09-01T17:49:35.802Z,47.14
2022-09-01T17:52:15.190Z,47.39
2022-09-01T17:54:52.387Z,47.71
2022-09-01T17:57:29.643Z,47.59
2022-09-01T18:00:03.933Z,47.75
2022-09-01T18:03:07.457Z,47.95
2022-09-01T18:05:41.378Z,47.66
2022-09-01T18:08:30.708Z,47.83
2022-09-01T18:11:03.685Z,47.71
2022-09-01T18:13:52.503Z,47.65
2022-09-01T18:16:26.837Z,47.70
2022-09-01T18:19:04.205Z,47.99
2022-09-01T18:21:38.243Z,48.23
2022-09-01T18:24:15.777Z,48.17
2022-09-01T18:26:48.441Z,48.06
2022-09-01T18:29:18.421Z,48.33
2022-09-01T18:32:19.125Z,48.38
2022-09-01T18:35:04.050Z,48.32
2022-09-01T18:37:50.547Z,48.32
2022-09-01T18:40:28.522Z,48.54
2022-09-01T18:43:09.425Z,48.61
2022-09-01T18:45:49.385Z,48.62
2022-09-01T18:48:37.361Z,48.65
2022-09-01T18:51:18.137Z,48.95
2022-09-01T18:53:52.812Z,49.06
2022-09-01T18:56:34.390Z,49.24
2022-09-01T18:59:36.503Z,49.12
2022-09-01T19:02:20.420Z,49.14
2022-09-01T19:04:54.885Z,49.38
2022-09-01T19:07:36.840Z,49.51
2022-09-01T19:10:18.745Z,49.51
2022-09-01T19:12:58.481Z,49.74
2022-09-01T19:15:33.638Z,49.61
2022-09-01T19:18:13.957Z,49.69
2022-09-01T19:20:51.361Z,49.83
2022-09-01T19:23:36.275Z,49.89
2022-09-01T19:26:08.824Z,50.19
2022-09-01T19:28:43.363Z,50.51
2022-09-01T19:31:23.726Z,50.40
2022-09-01T19:33:57.080Z,50.63
2022-09-01T19:36:34.261Z,50.81
2022-09-01T19:39:06.835Z,51.06
2022-09-01T19:41:41.232Z,50.97
2022-09-01T19:44:22.299Z,51.23
2022-09-01T19:46:55.531Z,51.39
2022-09-01T19:49:34.387Z,51.43
2022-09-01T19:52:10.697Z,51.54
2022-09-01T19:54:52.136Z,51.80
2022-09-01T19:57:28.769Z,51.88
2022-09-01T20:00:05.467Z,52.05
2022-09-01T20:02:39.414Z,52.00
2022-09-01T20:05:18.371Z,52.01
2022-09-01T20:07:54.672Z,52.05
2022-09-01T20:10:40.196Z,51.88
2022-09-01T20:13:27.779Z,51.93
2022-09-01T20:16:06.079Z,52.14
2022-09-01T20:18:40.190Z,52.08
2022-09-01T20:21:14.804Z,52.08
2022-09-01T20:23:56.044Z,52.12
2022-09-01T20:26:33.704Z,52.15
2022-09-01T20:29:12.254Z,52.14
2022-09-01T20:31:46.267Z,52.33
2022-09-01T20:34:22.223Z,52.51
2022-09-01T20:36:54.478Z,52.52
2022-09-01T20:39:50.237Z,52.65
2022-09-01T20:42:34.702Z,52.96
2022-09-01T20:45:10.805Z,52.88
2022-09-01T20:47:39.871Z,53.21
2022-09-01T20:50:14.561Z,53.24
2022-09-01T20:52:56.708Z,53.25
2022-09-01T20:55:31.271Z,53.35
2022-09-01T20:58:08.344Z,53.48
2022-09-01T21:00:45.769Z,53.52
2022-09-01T21:03:22.299Z,53.69
2022-09-01T21:06:15.758Z,53.81
2022-09-01T21:08:50.111Z,53.93
2022-09-01T21:11:29.948Z,53.92
2022-09-01T21:14:13.927Z,54.00
2022-09-01T21:16:52.873Z,54.24
2022-09-01T21:19:29.482Z,54.28
2022-09-01T21:22:05.530Z,54.70
2022-09-01T21:24:35.447Z,54.90
2022-09-01T21:27:09.454Z,55.06
2022-09-01T21:29:53.713Z,54.90
2022-09-01T21:32:23.500Z,55.27
2022-09-01T21:34:54.144Z,55.20
2022-09-01T21:37:24.345Z,55.32
2022-09-01T21:39:54.246Z,55.36
2022-09-01T21:42:25.272Z,55.39
2022-09-01T21:44:57.039Z,55.33
2022-09-01T21:47:27.494Z,55.38
2022-09-01T21:49:56.880Z,55.50
2022-09-01T21:52:26.119Z,55.40
2022-09-01T21:54:55.302Z,55.74
2022-09-01T21:57:24.480Z,55.71
2022-09-01T21:59:55.092Z,55.73
2022-09-01T22:02:28.441Z,55.99
2022-09-01T22:04:57.911Z,55.92
2022-09-01T22:07:26.959Z,55.90
2022-09-01T22:09:57.775Z,55.75
2022-09-01T22:12:27.019Z,55.91
2022-09-01T22:14:57.336Z,55.91
2022-09-01T22:17:27.213Z,56.23
2022-09-01T22:19:56.384Z,56.29
2022-09-01T22:22:25.777Z,56.39
2022-09-01T22:24:54.723Z,56.56
2022-09-01T22:27:23.965Z,56.68
2022-09-01T22:29:53.255Z,56.81
2022-09-01T22:32:26.910Z,57.02
2022-09-01T22:34:59.190Z,57.07
2022-09-01T22:37:28.151Z,57.13
2022-09-01T22:39:57.204Z,56.96
2022-09-01T22:42:26.412Z,57.08
2022-09-01T22:44:55.550Z,57.21
2022-09-01T22:47:25.933Z,57.40
2022-09-01T22:49:56.170Z,57.67
2022-09-01T22:52:25.528Z,57.76
2022-09-01T22:54:54.520Z,57.84
2022-09-01T22:57:23.743Z,57.94
2022-09-01T22:59:52.747Z,57.93
2022-09-01T23:02:21.928Z,58.02
2022-09-01T23:04:52.859Z,57.80
2022-09-01T23:07:21.848Z,57.70
2022-09-01T23:09:50.899Z,57.76
2022-09-01T23:12:20.490Z,57.74
2022-09-01T23:14:49.759Z,57.54
2022-09-01T23:17:18.887Z,57.84
2022-09-01T23:19:48.383Z,57.86
2022-09-01T23:22:19.050Z,58.15
2022-09-01T23:24:47.955Z,58.28
2022-09-01T23:27:17.361Z,58.48
2022-09-01T23:29:46.322Z,58.53
2022-09-01T23:32:15.463Z,58.50
2022-09-01T23:34:44.819Z,58.44
2022-09-01T23:37:13.907Z,58.40
2022-09-01T23:39:44.581Z,58.20
2022-09-01T23:42:13.879Z,58.15
2022-09-01T23:44:42.851Z,58.13
2022-09-01T23:47:12.043Z,58.12
2022-09-01T23:49:41.687Z,57.78
2022-09-01T23:52:11.175Z,58.08
2022-09-01T23:54:40.289Z,58.15
2022-09-01T23:57:11.731Z,58.28
2022-09-01T23:59:41.077Z,58.21
